sensor_id;sensor_type;location;lat;lon;timestamp;pressure;altitude;pressure_sealevel;temperature;humidity
53041;BME280;39326;42.650;23.248;2024-01-30T00:02:16;94334.22;;;-1.98;66.71
53041;BME280;39326;42.650;23.248;2024-01-30T00:04:42;94338.66;;;-1.99;66.29
53041;BME280;39326;42.650;23.248;2024-01-30T00:07:07;94341.50;;;-1.95;65.68
53041;BME280;39326;42.650;23.248;2024-01-30T00:09:33;94342.28;;;-2.05;66.51
53041;BME280;39326;42.650;23.248;2024-01-30T00:11:59;94340.44;;;-2.10;66.09
53041;BME280;39326;42.650;23.248;2024-01-30T00:14:24;94345.69;;;-1.99;66.12
53041;BME280;39326;42.650;23.248;2024-01-30T00:16:50;94346.47;;;-1.94;65.64
53041;BME280;39326;42.650;23.248;2024-01-30T00:19:16;94348.31;;;-2.04;65.62
53041;BME280;39326;42.650;23.248;2024-01-30T00:21:42;94348.03;;;-2.03;66.01
53041;BME280;39326;42.650;23.248;2024-01-30T00:24:07;94349.31;;;-2.05;65.78
53041;BME280;39326;42.650;23.248;2024-01-30T00:26:32;94350.38;;;-2.07;65.90
53041;BME280;39326;42.650;23.248;2024-01-30T00:28:58;94353.75;;;-2.21;65.85
53041;BME280;39326;42.650;23.248;2024-01-30T00:31:24;94343.34;;;-2.11;65.88
53041;BME280;39326;42.650;23.248;2024-01-30T00:33:49;94347.75;;;-2.22;66.04
53041;BME280;39326;42.650;23.248;2024-01-30T00:36:14;94340.94;;;-2.28;66.24
53041;BME280;39326;42.650;23.248;2024-01-30T00:38:40;94339.38;;;-2.19;65.97
53041;BME280;39326;42.650;23.248;2024-01-30T00:41:08;94340.94;;;-2.28;66.38
53041;BME280;39326;42.650;23.248;2024-01-30T00:43:34;94341.47;;;-2.16;65.87
53041;BME280;39326;42.650;23.248;2024-01-30T00:46:00;94337.56;;;-2.13;66.09
53041;BME280;39326;42.650;23.248;2024-01-30T00:48:25;94339.13;;;-2.12;65.85
53041;BME280;39326;42.650;23.248;2024-01-30T00:50:51;94335.75;;;-2.18;65.76
53041;BME280;39326;42.650;23.248;2024-01-30T00:53:16;94332.56;;;-2.30;66.31
53041;BME280;39326;42.650;23.248;2024-01-30T00:55:42;94336.22;;;-2.31;65.61
53041;BME280;39326;42.650;23.248;2024-01-30T00:58:07;94332.84;;;-2.26;66.64
53041;BME280;39326;42.650;23.248;2024-01-30T01:00:33;94330.72;;;-2.35;66.37
53041;BME280;39326;42.650;23.248;2024-01-30T01:02:59;94338.84;;;-2.36;66.71
53041;BME280;39326;42.650;23.248;2024-01-30T01:05:25;94335.72;;;-2.28;66.78
53041;BME280;39326;42.650;23.248;2024-01-30T01:07:51;94332.34;;;-2.23;66.76
53041;BME280;39326;42.650;23.248;2024-01-30T01:10:16;94327.09;;;-2.28;66.64
53041;BME280;39326;42.650;23.248;2024-01-30T01:12:42;94325.47;;;-2.40;66.74
53041;BME280;39326;42.650;23.248;2024-01-30T01:15:08;94327.28;;;-2.50;67.00
53041;BME280;39326;42.650;23.248;2024-01-30T01:17:35;94329.63;;;-2.54;67.85
53041;BME280;39326;42.650;23.248;2024-01-30T01:20:01;94327.00;;;-2.54;67.83
53041;BME280;39326;42.650;23.248;2024-01-30T01:22:26;94326.47;;;-2.61;68.24
53041;BME280;39326;42.650;23.248;2024-01-30T01:24:52;94331.69;;;-2.56;67.54
53041;BME280;39326;42.650;23.248;2024-01-30T01:27:17;94326.22;;;-2.54;68.00
53041;BME280;39326;42.650;23.248;2024-01-30T01:29:43;94330.41;;;-2.53;67.99
53041;BME280;39326;42.650;23.248;2024-01-30T01:32:08;94322.28;;;-2.57;68.12
53041;BME280;39326;42.650;23.248;2024-01-30T01:34:34;94328.63;;;-2.38;67.58
53041;BME280;39326;42.650;23.248;2024-01-30T01:36:59;94327.34;;;-2.35;67.37
53041;BME280;39326;42.650;23.248;2024-01-30T01:39:25;94328.38;;;-2.31;67.51
53041;BME280;39326;42.650;23.248;2024-01-30T01:41:51;94331.00;;;-2.26;67.62
53041;BME280;39326;42.650;23.248;2024-01-30T01:44:17;94324.72;;;-2.25;67.53
53041;BME280;39326;42.650;23.248;2024-01-30T01:46:43;94327.09;;;-2.28;67.40
53041;BME280;39326;42.650;23.248;2024-01-30T01:49:09;94323.44;;;-2.27;66.97
53041;BME280;39326;42.650;23.248;2024-01-30T01:51:35;94325.78;;;-2.36;67.33
53041;BME280;39326;42.650;23.248;2024-01-30T01:54:04;94319.75;;;-2.31;67.66
53041;BME280;39326;42.650;23.248;2024-01-30T01:56:33;94325.47;;;-2.40;67.48
53041;BME280;39326;42.650;23.248;2024-01-30T01:59:06;94328.59;;;-2.48;67.27
53041;BME280;39326;42.650;23.248;2024-01-30T02:01:38;94327.75;;;-2.64;67.89
53041;BME280;39326;42.650;23.248;2024-01-30T02:04:07;94335.91;;;-2.55;67.79
53041;BME280;39326;42.650;23.248;2024-01-30T02:06:33;94332.25;;;-2.44;67.19
53041;BME280;39326;42.650;23.248;2024-01-30T02:08:59;94338.28;;;-2.38;66.62
53041;BME280;39326;42.650;23.248;2024-01-30T02:11:25;94338.53;;;-2.45;66.74
53041;BME280;39326;42.650;23.248;2024-01-30T02:13:51;94337.22;;;-2.47;66.96
53041;BME280;39326;42.650;23.248;2024-01-30T02:16:16;94343.47;;;-2.43;66.45
53041;BME280;39326;42.650;23.248;2024-01-30T02:18:45;94340.91;;;-2.33;66.91
53041;BME280;39326;42.650;23.248;2024-01-30T02:21:17;94340.91;;;-2.33;66.35
53041;BME280;39326;42.650;23.248;2024-01-30T02:23:44;94337.75;;;-2.40;67.05
53041;BME280;39326;42.650;23.248;2024-01-30T02:26:11;94333.59;;;-2.36;66.68
53041;BME280;39326;42.650;23.248;2024-01-30T02:28:37;94330.72;;;-2.35;66.63
53041;BME280;39326;42.650;23.248;2024-01-30T02:31:03;94330.97;;;-2.41;66.94
53041;BME280;39326;42.650;23.248;2024-01-30T02:33:28;94322.38;;;-2.26;66.82
53041;BME280;39326;42.650;23.248;2024-01-30T02:35:53;94323.69;;;-2.19;66.17
53041;BME280;39326;42.650;23.248;2024-01-30T02:38:20;94330.72;;;-2.35;66.55
53041;BME280;39326;42.650;23.248;2024-01-30T02:40:45;94328.38;;;-2.26;66.64
53041;BME280;39326;42.650;23.248;2024-01-30T02:43:11;94328.91;;;-2.29;66.92
53041;BME280;39326;42.650;23.248;2024-01-30T02:45:37;94326.56;;;-2.36;67.42
53041;BME280;39326;42.650;23.248;2024-01-30T02:48:02;94321.56;;;-2.47;67.64
53041;BME280;39326;42.650;23.248;2024-01-30T02:50:28;94329.41;;;-2.32;66.89
53041;BME280;39326;42.650;23.248;2024-01-30T02:52:53;94325.22;;;-2.38;67.24
53041;BME280;39326;42.650;23.248;2024-01-30T02:55:19;94327.28;;;-2.45;66.63
53041;BME280;39326;42.650;23.248;2024-01-30T02:57:44;94329.94;;;-2.35;67.37
53041;BME280;39326;42.650;23.248;2024-01-30T03:00:10;94329.41;;;-2.42;67.37
53041;BME280;39326;42.650;23.248;2024-01-30T03:02:36;94324.41;;;-2.44;66.78
53041;BME280;39326;42.650;23.248;2024-01-30T03:05:02;94331.44;;;-2.49;66.80
53041;BME280;39326;42.650;23.248;2024-01-30T03:07:29;94327.28;;;-2.50;67.19
53041;BME280;39326;42.650;23.248;2024-01-30T03:09:54;94320.47;;;-2.51;67.84
53041;BME280;39326;42.650;23.248;2024-01-30T03:12:21;94318.16;;;-2.48;67.42
53041;BME280;39326;42.650;23.248;2024-01-30T03:14:46;94312.69;;;-2.41;66.69
53041;BME280;39326;42.650;23.248;2024-01-30T03:17:11;94319.47;;;-2.45;67.15
53041;BME280;39326;42.650;23.248;2024-01-30T03:19:37;94312.38;;;-2.50;66.79
53041;BME280;39326;42.650;23.248;2024-01-30T03:22:02;94316.81;;;-2.50;66.65
53041;BME280;39326;42.650;23.248;2024-01-30T03:24:28;94321.56;;;-2.47;67.15
53041;BME280;39326;42.650;23.248;2024-01-30T03:26:53;94321.31;;;-2.36;66.60
53041;BME280;39326;42.650;23.248;2024-01-30T03:29:18;94319.19;;;-2.54;66.42
53041;BME280;39326;42.650;23.248;2024-01-30T03:31:44;94316.03;;;-2.56;67.29
53041;BME280;39326;42.650;23.248;2024-01-30T03:34:09;94314.72;;;-2.58;66.92
53041;BME280;39326;42.650;23.248;2024-01-30T03:36:35;94303.00;;;-2.51;66.87
53041;BME280;39326;42.650;23.248;2024-01-30T03:39:00;94304.56;;;-2.50;66.61
53041;BME280;39326;42.650;23.248;2024-01-30T03:41:26;94306.38;;;-2.55;67.40
53041;BME280;39326;42.650;23.248;2024-01-30T03:43:52;94303.50;;;-2.54;67.29
53041;BME280;39326;42.650;23.248;2024-01-30T03:46:17;94306.34;;;-2.66;67.30
53041;BME280;39326;42.650;23.248;2024-01-30T03:48:42;94307.63;;;-2.73;67.67
53041;BME280;39326;42.650;23.248;2024-01-30T03:51:08;94308.19;;;-2.66;66.47
53041;BME280;39326;42.650;23.248;2024-01-30T03:53:34;94303.19;;;-2.73;66.61
53041;BME280;39326;42.650;23.248;2024-01-30T03:56:00;94299.81;;;-2.73;67.38
53041;BME280;39326;42.650;23.248;2024-01-30T03:58:26;94302.66;;;-2.75;67.04
53041;BME280;39326;42.650;23.248;2024-01-30T04:00:51;94297.94;;;-2.83;66.03
53041;BME280;39326;42.650;23.248;2024-01-30T04:03:17;94297.44;;;-2.80;66.65
53041;BME280;39326;42.650;23.248;2024-01-30T04:05:42;94297.44;;;-2.75;65.56
53041;BME280;39326;42.650;23.248;2024-01-30T04:08:08;94294.59;;;-2.73;65.53
53041;BME280;39326;42.650;23.248;2024-01-30T04:10:34;94304.72;;;-2.82;66.05
53041;BME280;39326;42.650;23.248;2024-01-30T04:12:59;94294.53;;;-2.83;65.48
53041;BME280;39326;42.650;23.248;2024-01-30T04:15:25;94288.81;;;-2.80;65.15
53041;BME280;39326;42.650;23.248;2024-01-30T04:17:51;94299.50;;;-2.82;64.93
53041;BME280;39326;42.650;23.248;2024-01-30T04:20:16;94298.16;;;-2.90;65.37
53041;BME280;39326;42.650;23.248;2024-01-30T04:22:45;94306.56;;;-2.77;65.17
53041;BME280;39326;42.650;23.248;2024-01-30T04:25:12;94291.97;;;-2.73;64.44
53041;BME280;39326;42.650;23.248;2024-01-30T04:27:38;94303.97;;;-2.72;64.18
53041;BME280;39326;42.650;23.248;2024-01-30T04:30:04;94302.97;;;-2.56;64.57
53041;BME280;39326;42.650;23.248;2024-01-30T04:32:29;94310.81;;;-2.51;64.05
53041;BME280;39326;42.650;23.248;2024-01-30T04:34:55;94311.38;;;-2.44;64.36
53041;BME280;39326;42.650;23.248;2024-01-30T04:37:20;94304.81;;;-2.51;64.27
53041;BME280;39326;42.650;23.248;2024-01-30T04:39:46;94303.22;;;-2.57;64.46
53041;BME280;39326;42.650;23.248;2024-01-30T04:42:11;94303.00;;;-2.51;64.57
53041;BME280;39326;42.650;23.248;2024-01-30T04:44:37;94305.88;;;-2.52;64.96
53041;BME280;39326;42.650;23.248;2024-01-30T04:47:02;94307.97;;;-2.54;64.96
53041;BME280;39326;42.650;23.248;2024-01-30T04:49:28;94311.88;;;-2.52;64.40
53041;BME280;39326;42.650;23.248;2024-01-30T04:51:54;94315.50;;;-2.58;65.09
53041;BME280;39326;42.650;23.248;2024-01-30T04:54:20;94321.78;;;-2.54;64.70
53041;BME280;39326;42.650;23.248;2024-01-30T04:56:45;94333.97;;;-2.75;64.69
53041;BME280;39326;42.650;23.248;2024-01-30T04:59:11;94323.72;;;-2.97;65.20
53041;BME280;39326;42.650;23.248;2024-01-30T05:01:37;94330.22;;;-2.99;65.83
53041;BME280;39326;42.650;23.248;2024-01-30T05:04:02;94330.16;;;-3.09;65.47
53041;BME280;39326;42.650;23.248;2024-01-30T05:06:28;94332.00;;;-3.10;65.54
53041;BME280;39326;42.650;23.248;2024-01-30T05:08:54;94329.16;;;-3.03;65.47
53041;BME280;39326;42.650;23.248;2024-01-30T05:11:19;94334.88;;;-3.11;66.13
53041;BME280;39326;42.650;23.248;2024-01-30T05:13:45;94338.25;;;-3.11;65.97
53041;BME280;39326;42.650;23.248;2024-01-30T05:16:10;94331.47;;;-3.07;65.71
53041;BME280;39326;42.650;23.248;2024-01-30T05:18:35;94334.13;;;-3.02;65.80
53041;BME280;39326;42.650;23.248;2024-01-30T05:21:02;94347.19;;;-2.97;65.65
53041;BME280;39326;42.650;23.248;2024-01-30T05:23:27;94341.75;;;-2.90;65.72
53041;BME280;39326;42.650;23.248;2024-01-30T05:25:53;94345.41;;;-2.91;65.44
53041;BME280;39326;42.650;23.248;2024-01-30T05:28:18;94347.19;;;-2.97;64.69
53041;BME280;39326;42.650;23.248;2024-01-30T05:30:43;94344.00;;;-3.09;66.25
53041;BME280;39326;42.650;23.248;2024-01-30T05:33:09;94346.44;;;-2.87;65.67
53041;BME280;39326;42.650;23.248;2024-01-30T05:35:37;94340.47;;;-2.82;65.17
53041;BME280;39326;42.650;23.248;2024-01-30T05:38:02;94333.19;;;-2.80;65.40
53041;BME280;39326;42.650;23.248;2024-01-30T05:40:28;94344.97;;;-2.73;65.01
53041;BME280;39326;42.650;23.248;2024-01-30T05:42:53;94343.09;;;-2.77;65.36
53041;BME280;39326;42.650;23.248;2024-01-30T05:45:19;94346.00;;;-2.74;65.24
53041;BME280;39326;42.650;23.248;2024-01-30T05:47:44;94339.72;;;-2.78;64.62
53041;BME280;39326;42.650;23.248;2024-01-30T05:50:09;94348.00;;;-2.91;65.79
53041;BME280;39326;42.650;23.248;2024-01-30T05:52:35;94340.75;;;-2.79;65.47
53041;BME280;39326;42.650;23.248;2024-01-30T05:55:00;94344.66;;;-2.76;64.86
53041;BME280;39326;42.650;23.248;2024-01-30T05:57:26;94343.41;;;-2.74;65.01
53041;BME280;39326;42.650;23.248;2024-01-30T05:59:51;94339.16;;;-2.85;64.56
53041;BME280;39326;42.650;23.248;2024-01-30T06:02:17;94325.75;;;-3.04;64.92
53041;BME280;39326;42.650;23.248;2024-01-30T06:04:42;94330.00;;;-2.93;64.94
53041;BME280;39326;42.650;23.248;2024-01-30T06:07:09;94337.47;;;-3.11;65.90
53041;BME280;39326;42.650;23.248;2024-01-30T06:09:35;94335.69;;;-3.01;65.21
53041;BME280;39326;42.650;23.248;2024-01-30T06:12:00;94330.75;;;-2.97;65.01
53041;BME280;39326;42.650;23.248;2024-01-30T06:14:26;94331.47;;;-3.07;64.85
53041;BME280;39326;42.650;23.248;2024-01-30T06:16:51;94339.59;;;-3.03;64.12
53041;BME280;39326;42.650;23.248;2024-01-30T06:19:16;94339.00;;;-3.16;64.94
53041;BME280;39326;42.650;23.248;2024-01-30T06:21:42;94338.75;;;-3.14;64.29
53041;BME280;39326;42.650;23.248;2024-01-30T06:24:07;94336.88;;;-3.19;64.22
53041;BME280;39326;42.650;23.248;2024-01-30T06:26:34;94340.31;;;-3.18;64.63
53041;BME280;39326;42.650;23.248;2024-01-30T06:28:59;94349.84;;;-3.34;65.28
53041;BME280;39326;42.650;23.248;2024-01-30T06:31:24;94339.41;;;-3.34;64.53
53041;BME280;39326;42.650;23.248;2024-01-30T06:33:50;94343.91;;;-3.24;64.88
53041;BME280;39326;42.650;23.248;2024-01-30T06:36:16;94351.97;;;-3.26;65.27
53041;BME280;39326;42.650;23.248;2024-01-30T06:38:41;94344.69;;;-3.24;65.42
53041;BME280;39326;42.650;23.248;2024-01-30T06:41:07;94346.88;;;-3.10;65.23
53041;BME280;39326;42.650;23.248;2024-01-30T06:43:32;94345.53;;;-3.13;65.07
53041;BME280;39326;42.650;23.248;2024-01-30T06:45:58;94346.38;;;-3.02;65.37
53041;BME280;39326;42.650;23.248;2024-01-30T06:48:24;94345.91;;;-2.89;64.38
53041;BME280;39326;42.650;23.248;2024-01-30T06:50:50;94347.69;;;-3.00;64.88
53041;BME280;39326;42.650;23.248;2024-01-30T06:53:16;94334.88;;;-3.06;65.01
53041;BME280;39326;42.650;23.248;2024-01-30T06:55:41;94341.38;;;-3.09;65.64
53041;BME280;39326;42.650;23.248;2024-01-30T06:58:06;94350.03;;;-3.03;65.53
53041;BME280;39326;42.650;23.248;2024-01-30T07:00:32;94350.03;;;-3.03;65.92
53041;BME280;39326;42.650;23.248;2024-01-30T07:02:57;94354.75;;;-2.95;65.70
53041;BME280;39326;42.650;23.248;2024-01-30T07:05:23;94346.91;;;-3.05;65.25
53041;BME280;39326;42.650;23.248;2024-01-30T07:07:48;94352.81;;;-3.15;65.13
53041;BME280;39326;42.650;23.248;2024-01-30T07:10:14;94357.94;;;-2.93;64.99
53041;BME280;39326;42.650;23.248;2024-01-30T07:12:39;94345.38;;;-2.96;64.76
53041;BME280;39326;42.650;23.248;2024-01-30T07:15:05;94350.78;;;-3.08;64.07
53041;BME280;39326;42.650;23.248;2024-01-30T07:17:34;94350.09;;;-2.93;64.18
53041;BME280;39326;42.650;23.248;2024-01-30T07:20:00;94348.28;;;-2.93;63.46
53041;BME280;39326;42.650;23.248;2024-01-30T07:22:25;94354.84;;;-2.80;62.77
53041;BME280;39326;42.650;23.248;2024-01-30T07:24:50;94355.09;;;-2.86;62.29
53041;BME280;39326;42.650;23.248;2024-01-30T07:27:17;94358.25;;;-2.79;61.74
53041;BME280;39326;42.650;23.248;2024-01-30T07:29:43;94362.22;;;-2.67;61.57
53041;BME280;39326;42.650;23.248;2024-01-30T07:32:08;94356.44;;;-2.69;61.10
53041;BME280;39326;42.650;23.248;2024-01-30T07:34:34;94356.22;;;-2.67;60.29
53041;BME280;39326;42.650;23.248;2024-01-30T07:36:59;94347.38;;;-2.61;60.53
53041;BME280;39326;42.650;23.248;2024-01-30T07:39:25;94355.75;;;-2.54;60.31
53041;BME280;39326;42.650;23.248;2024-01-30T07:41:50;94355.47;;;-2.52;60.45
53041;BME280;39326;42.650;23.248;2024-01-30T07:44:16;94358.97;;;-2.21;59.31
53041;BME280;39326;42.650;23.248;2024-01-30T07:46:41;94348.53;;;-2.16;59.10
53041;BME280;39326;42.650;23.248;2024-01-30T07:49:07;94355.91;;;-1.98;59.28
53041;BME280;39326;42.650;23.248;2024-01-30T07:51:33;94357.47;;;-1.87;58.13
53041;BME280;39326;42.650;23.248;2024-01-30T07:53:58;94350.41;;;-1.81;58.46
53041;BME280;39326;42.650;23.248;2024-01-30T07:56:24;94348.88;;;-1.67;57.84
53041;BME280;39326;42.650;23.248;2024-01-30T07:58:49;94343.63;;;-1.57;57.49
53041;BME280;39326;42.650;23.248;2024-01-30T08:01:15;94343.91;;;-1.53;56.92
53041;BME280;39326;42.650;23.248;2024-01-30T08:03:41;94348.06;;;-1.52;56.97
53041;BME280;39326;42.650;23.248;2024-01-30T08:06:07;94346.00;;;-1.60;56.62
53041;BME280;39326;42.650;23.248;2024-01-30T08:08:32;94348.09;;;-1.67;56.25
53041;BME280;39326;42.650;23.248;2024-01-30T08:10:57;94338.38;;;-1.87;56.15
53041;BME280;39326;42.650;23.248;2024-01-30T08:13:23;94349.88;;;-1.68;56.11
53041;BME280;39326;42.650;23.248;2024-01-30T08:15:48;94352.50;;;-1.68;55.88
53041;BME280;39326;42.650;23.248;2024-01-30T08:18:14;94341.28;;;-1.53;55.70
53041;BME280;39326;42.650;23.248;2024-01-30T08:20:39;94343.88;;;-1.43;56.25
53041;BME280;39326;42.650;23.248;2024-01-30T08:23:04;94345.16;;;-1.10;56.03
53041;BME280;39326;42.650;23.248;2024-01-30T08:25:30;94344.59;;;-0.91;55.30
53041;BME280;39326;42.650;23.248;2024-01-30T08:27:55;94346.44;;;-1.02;54.24
53041;BME280;39326;42.650;23.248;2024-01-30T08:30:22;94341.16;;;-0.87;55.19
53041;BME280;39326;42.650;23.248;2024-01-30T08:32:47;94348.72;;;-0.75;54.81
53041;BME280;39326;42.650;23.248;2024-01-30T08:35:13;94354.53;;;-0.93;54.60
53041;BME280;39326;42.650;23.248;2024-01-30T08:37:40;94348.72;;;-0.75;54.25
53041;BME280;39326;42.650;23.248;2024-01-30T08:40:06;94356.28;;;-0.63;53.85
53041;BME280;39326;42.650;23.248;2024-01-30T08:42:33;94351.56;;;-0.56;54.44
53041;BME280;39326;42.650;23.248;2024-01-30T08:44:59;94351.44;;;-0.31;54.01
53041;BME280;39326;42.650;23.248;2024-01-30T08:47:24;94358.69;;;-0.12;53.00
53041;BME280;39326;42.650;23.248;2024-01-30T08:49:50;94360.53;;;-0.13;52.74
53041;BME280;39326;42.650;23.248;2024-01-30T08:52:16;94363.41;;;0.35;52.38
53041;BME280;39326;42.650;23.248;2024-01-30T08:54:42;94355.91;;;0.52;52.06
53041;BME280;39326;42.650;23.248;2024-01-30T08:57:08;94352.56;;;0.47;50.74
53041;BME280;39326;42.650;23.248;2024-01-30T08:59:33;94359.63;;;0.80;50.40
53041;BME280;39326;42.650;23.248;2024-01-30T09:01:59;94361.06;;;1.21;51.01
53041;BME280;39326;42.650;23.248;2024-01-30T09:04:25;94368.72;;;0.93;49.79
53041;BME280;39326;42.650;23.248;2024-01-30T09:06:50;94371.00;;;1.00;50.20
53041;BME280;39326;42.650;23.248;2024-01-30T09:09:16;94370.16;;;0.75;49.03
53041;BME280;39326;42.650;23.248;2024-01-30T09:11:43;94368.63;;;0.69;49.75
53041;BME280;39326;42.650;23.248;2024-01-30T09:14:08;94353.50;;;0.61;50.09
53041;BME280;39326;42.650;23.248;2024-01-30T09:16:34;94363.56;;;0.49;50.02
53041;BME280;39326;42.650;23.248;2024-01-30T09:18:59;94364.06;;;0.51;50.28
53041;BME280;39326;42.650;23.248;2024-01-30T09:21:25;94363.78;;;0.86;49.65
53041;BME280;39326;42.650;23.248;2024-01-30T09:23:51;94365.00;;;0.65;50.20
53041;BME280;39326;42.650;23.248;2024-01-30T09:26:17;94356.75;;;0.48;50.51
53041;BME280;39326;42.650;23.248;2024-01-30T09:28:42;94361.66;;;0.20;51.79
53041;BME280;39326;42.650;23.248;2024-01-30T09:31:11;94355.13;;;0.18;52.60
53041;BME280;39326;42.650;23.248;2024-01-30T09:33:37;94358.31;;;0.09;53.10
53041;BME280;39326;42.650;23.248;2024-01-30T09:36:04;94357.47;;;0.19;53.44
53041;BME280;39326;42.650;23.248;2024-01-30T09:38:30;94353.78;;;0.20;53.60
53041;BME280;39326;42.650;23.248;2024-01-30T09:40:55;94345.50;;;0.42;53.22
53041;BME280;39326;42.650;23.248;2024-01-30T09:43:23;94352.16;;;0.29;53.73
53041;BME280;39326;42.650;23.248;2024-01-30T09:45:50;94357.06;;;0.41;53.92
53041;BME280;39326;42.650;23.248;2024-01-30T09:48:16;94343.94;;;0.70;53.74
53041;BME280;39326;42.650;23.248;2024-01-30T09:50:41;94346.56;;;0.70;52.59
53041;BME280;39326;42.650;23.248;2024-01-30T09:53:08;94346.81;;;0.74;52.38
53041;BME280;39326;42.650;23.248;2024-01-30T09:55:35;94348.69;;;0.68;52.85
53041;BME280;39326;42.650;23.248;2024-01-30T09:58:01;94354.00;;;0.63;53.08
53041;BME280;39326;42.650;23.248;2024-01-30T10:00:26;94345.28;;;0.68;52.25
53041;BME280;39326;42.650;23.248;2024-01-30T10:02:52;94350.59;;;0.62;52.23
53041;BME280;39326;42.650;23.248;2024-01-30T10:05:19;94339.44;;;0.47;52.13
53041;BME280;39326;42.650;23.248;2024-01-30T10:07:54;94338.16;;;0.05;52.94
53041;BME280;39326;42.650;23.248;2024-01-30T10:10:23;94337.91;;;0.01;54.22
53041;BME280;39326;42.650;23.248;2024-01-30T10:12:49;94335.56;;;-0.00;54.06
53041;BME280;39326;42.650;23.248;2024-01-30T10:15:15;94327.19;;;-0.02;53.93
53041;BME280;39326;42.650;23.248;2024-01-30T10:17:40;94338.50;;;-0.12;53.86
53041;BME280;39326;42.650;23.248;2024-01-30T10:20:06;94328.44;;;-0.39;54.44
53041;BME280;39326;42.650;23.248;2024-01-30T10:22:33;94335.66;;;-0.15;54.02
53041;BME280;39326;42.650;23.248;2024-01-30T10:25:00;94340.13;;;-0.21;54.43
53041;BME280;39326;42.650;23.248;2024-01-30T10:27:26;94332.09;;;-0.40;54.32
53041;BME280;39326;42.650;23.248;2024-01-30T10:29:52;94337.09;;;-0.49;54.99
53041;BME280;39326;42.650;23.248;2024-01-30T10:32:17;94329.75;;;-0.41;54.36
53041;BME280;39326;42.650;23.248;2024-01-30T10:34:43;94328.16;;;-0.42;55.29
53041;BME280;39326;42.650;23.248;2024-01-30T10:37:10;94335.78;;;-0.41;54.92
53041;BME280;39326;42.650;23.248;2024-01-30T10:39:39;94327.31;;;-0.23;54.16
53041;BME280;39326;42.650;23.248;2024-01-30T10:42:06;94328.63;;;-0.30;55.07
53041;BME280;39326;42.650;23.248;2024-01-30T10:44:43;94321.84;;;0.08;54.45
53041;BME280;39326;42.650;23.248;2024-01-30T10:47:12;94334.47;;;0.06;54.51
53041;BME280;39326;42.650;23.248;2024-01-30T10:49:40;94320.06;;;0.03;54.44
53041;BME280;39326;42.650;23.248;2024-01-30T10:52:08;94321.25;;;0.21;54.47
53041;BME280;39326;42.650;23.248;2024-01-30T10:54:35;94326.13;;;-0.01;54.20
53041;BME280;39326;42.650;23.248;2024-01-30T10:57:01;94321.50;;;0.20;53.33
53041;BME280;39326;42.650;23.248;2024-01-30T10:59:29;94304.47;;;0.22;53.45
53041;BME280;39326;42.650;23.248;2024-01-30T11:01:57;94295.38;;;0.09;53.54
53041;BME280;39326;42.650;23.248;2024-01-30T11:04:23;94303.00;;;0.06;54.33
53041;BME280;39326;42.650;23.248;2024-01-30T11:06:50;94297.41;;;0.18;53.76
53041;BME280;39326;42.650;23.248;2024-01-30T11:09:17;94298.13;;;0.28;53.50
53041;BME280;39326;42.650;23.248;2024-01-30T11:11:56;94299.72;;;0.24;53.49
53041;BME280;39326;42.650;23.248;2024-01-30T11:14:26;94289.09;;;0.69;54.23
53041;BME280;39326;42.650;23.248;2024-01-30T11:16:51;94290.03;;;1.07;52.86
53041;BME280;39326;42.650;23.248;2024-01-30T11:19:23;94283.44;;;1.09;50.70
53041;BME280;39326;42.650;23.248;2024-01-30T11:21:53;94289.25;;;1.30;52.30
53041;BME280;39326;42.650;23.248;2024-01-30T11:24:20;94281.56;;;1.34;51.58
53041;BME280;39326;42.650;23.248;2024-01-30T11:26:49;94282.47;;;1.48;51.22
53041;BME280;39326;42.650;23.248;2024-01-30T11:29:17;94284.09;;;1.63;50.63
53041;BME280;39326;42.650;23.248;2024-01-30T11:31:58;94286.84;;;1.53;49.83
53041;BME280;39326;42.650;23.248;2024-01-30T11:34:24;94274.44;;;1.15;50.94
53041;BME280;39326;42.650;23.248;2024-01-30T11:37:02;94282.56;;;1.38;51.25
53041;BME280;39326;42.650;23.248;2024-01-30T11:39:31;94284.66;;;1.41;50.90
53041;BME280;39326;42.650;23.248;2024-01-30T11:41:58;94285.72;;;1.59;51.37
53041;BME280;39326;42.650;23.248;2024-01-30T11:44:24;94289.91;;;1.41;51.56
53041;BME280;39326;42.650;23.248;2024-01-30T11:46:51;94289.25;;;1.73;51.11
53041;BME280;39326;42.650;23.248;2024-01-30T11:49:17;94288.81;;;1.23;51.00
53041;BME280;39326;42.650;23.248;2024-01-30T11:51:45;94282.38;;;1.34;51.59
53041;BME280;39326;42.650;23.248;2024-01-30T11:54:10;94288.72;;;1.71;51.34
53041;BME280;39326;42.650;23.248;2024-01-30T11:56:37;94285.31;;;1.70;50.82
53041;BME280;39326;42.650;23.248;2024-01-30T11:59:02;94280.56;;;1.73;49.50
53041;BME280;39326;42.650;23.248;2024-01-30T12:01:27;94277.22;;;1.86;50.38
53041;BME280;39326;42.650;23.248;2024-01-30T12:03:53;94273.38;;;1.78;50.66
53041;BME280;39326;42.650;23.248;2024-01-30T12:06:18;94263.78;;;1.87;50.38
53041;BME280;39326;42.650;23.248;2024-01-30T12:08:59;94259.72;;;1.76;49.28
53041;BME280;39326;42.650;23.248;2024-01-30T12:11:25;94253.03;;;1.65;49.74
53041;BME280;39326;42.650;23.248;2024-01-30T12:13:52;94258.03;;;1.48;50.11
53041;BME280;39326;42.650;23.248;2024-01-30T12:16:18;94252.78;;;1.66;50.47
53041;BME280;39326;42.650;23.248;2024-01-30T12:18:44;94239.81;;;2.08;50.67
53041;BME280;39326;42.650;23.248;2024-01-30T12:21:09;94234.66;;;2.35;48.88
53041;BME280;39326;42.650;23.248;2024-01-30T12:23:35;94247.41;;;2.88;49.08
53041;BME280;39326;42.650;23.248;2024-01-30T12:26:01;94239.56;;;2.56;48.56
53041;BME280;39326;42.650;23.248;2024-01-30T12:28:29;94236.59;;;2.43;47.69
53041;BME280;39326;42.650;23.248;2024-01-30T12:30:56;94238.13;;;2.91;48.04
53041;BME280;39326;42.650;23.248;2024-01-30T12:33:26;94233.28;;;2.98;48.09
53041;BME280;39326;42.650;23.248;2024-01-30T12:35:52;94229.03;;;2.69;48.06
53041;BME280;39326;42.650;23.248;2024-01-30T12:38:17;94236.56;;;2.76;47.80
53041;BME280;39326;42.650;23.248;2024-01-30T12:40:43;94232.47;;;3.25;47.29
53041;BME280;39326;42.650;23.248;2024-01-30T12:43:09;94235.09;;;3.25;46.96
53041;BME280;39326;42.650;23.248;2024-01-30T12:45:36;94224.50;;;3.52;46.52
53041;BME280;39326;42.650;23.248;2024-01-30T12:48:01;94229.38;;;3.95;46.77